createdAt,value
2024-05-09T00:07:16.138Z,6.65
2024-05-09T00:22:18.955Z,7.10
2024-05-09T00:37:22.496Z,6.95
2024-05-09T00:52:25.447Z,6.97
2024-05-09T01:07:27.771Z,6.80
2024-05-09T01:22:29.876Z,6.75
2024-05-09T01:37:31.918Z,7.05
2024-05-09T01:52:38.881Z,7.10
2024-05-09T02:07:41.182Z,6.57
2024-05-09T02:22:43.507Z,7.00
2024-05-09T02:37:45.849Z,6.65
2024-05-09T02:52:48.203Z,6.55
2024-05-09T03:07:50.694Z,6.50
2024-05-09T03:22:56.354Z,6.60
2024-05-09T03:37:59.253Z,6.28
2024-05-09T03:53:02.265Z,6.68
2024-05-09T04:08:05.118Z,6.65
2024-05-09T04:23:08.771Z,6.88
2024-05-09T04:38:12.875Z,6.95
2024-05-09T04:53:16.313Z,7.25
2024-05-09T05:08:19.576Z,6.82
2024-05-09T05:23:22.584Z,6.80
2024-05-09T05:38:28.200Z,7.28
2024-05-09T05:53:31.004Z,6.97
2024-05-09T06:08:33.332Z,6.95
2024-05-09T06:23:35.656Z,7.80
2024-05-09T06:38:38.450Z,7.80
2024-05-09T06:53:40.944Z,10.30
2024-05-09T07:08:43.317Z,10.52
2024-05-09T07:23:47.319Z,10.00
2024-05-09T07:38:50.144Z,9.77
2024-05-09T07:53:55.013Z,10.13
2024-05-09T08:09:03.081Z,10.07
2024-05-09T08:24:10.613Z,9.27
2024-05-09T08:39:13.818Z,8.68
2024-05-09T08:54:17.792Z,8.82
2024-05-09T09:09:19.846Z,8.32
2024-05-09T09:24:22.313Z,8.93
2024-05-09T09:39:25.220Z,8.18
2024-05-09T09:54:27.283Z,8.38
2024-05-09T10:09:29.702Z,7.78
2024-05-09T10:24:51.730Z,7.63
2024-05-09T10:39:55.539Z,7.35
2024-05-09T10:54:59.146Z,8.05
2024-05-09T11:10:02.328Z,7.85
2024-05-09T11:25:05.182Z,7.70
2024-05-09T11:40:13.759Z,7.05
2024-05-09T11:55:27.360Z,7.30
2024-05-09T12:10:34.193Z,7.20
2024-05-09T12:25:38.762Z,7.00
2024-05-09T12:40:41.938Z,7.30
2024-05-09T12:55:53.414Z,7.10
2024-05-09T13:10:59.658Z,7.78
2024-05-09T13:26:01.779Z,6.90
2024-05-09T13:41:04.205Z,7.97
2024-05-09T13:56:06.840Z,7.72
2024-05-09T14:11:09.191Z,8.82
2024-05-09T14:26:11.569Z,7.90
2024-05-09T14:41:13.674Z,8.07
2024-05-09T14:56:16.063Z,7.95
2024-05-09T15:11:18.551Z,8.52
2024-05-09T15:26:20.999Z,7.90
2024-05-09T15:41:23.407Z,7.78
2024-05-09T15:56:25.482Z,7.72
2024-05-09T16:11:27.963Z,7.53
2024-05-09T16:26:30.541Z,7.50
2024-05-09T16:41:33.048Z,7.07
2024-05-09T16:56:35.142Z,7.45
2024-05-09T17:11:37.337Z,8.13
2024-05-09T17:26:39.483Z,7.75
2024-05-09T17:41:42.970Z,7.95
2024-05-09T17:56:45.315Z,7.95
2024-05-09T18:11:47.522Z,8.07
2024-05-09T18:26:49.870Z,8.02
2024-05-09T18:41:52.597Z,8.25
2024-05-09T18:56:54.890Z,8.38
2024-05-09T19:11:57.597Z,7.70
2024-05-09T19:26:59.849Z,8.48
2024-05-09T19:42:02.297Z,7.95
2024-05-09T19:57:05.064Z,7.60
2024-05-09T20:12:07.408Z,6.90
2024-05-09T20:27:10.171Z,7.40
2024-05-09T20:42:12.615Z,7.75
2024-05-09T20:57:14.889Z,7.85
2024-05-09T21:12:18.678Z,7.70
2024-05-09T21:27:21.065Z,8.73
2024-05-09T21:42:23.176Z,8.68
2024-05-09T21:57:25.647Z,8.68
2024-05-09T22:12:27.704Z,8.70
2024-05-09T22:27:29.967Z,8.52
2024-05-09T22:42:32.055Z,9.13
2024-05-09T22:57:34.577Z,9.18
2024-05-09T23:12:36.669Z,8.65
2024-05-09T23:27:39.285Z,8.00
2024-05-09T23:42:42.011Z,8.32
2024-05-09T23:57:44.082Z,8.10
